BGTL

Thule Air Base Airport

Qaanaaq, , Greenland
METAR BGTL 191656Z AUTO 10008KT 9999 CLR M32/M35 A2928 RMK AO2 SLP910 T13161347 TSNO CHINO RWY26 $
Observed Flight Rules
Jan-19 @ 16:56 UTC (36 minutes ago) Visual Flight Rules
Wind Visibility Clouds
100° at 8 knots 10,000+ meters
  • Clear skies
Temperatures Readings
Current -32°C / -26°F
Dewpoint -35°C / -31°F
Humidity 75%
Altimeter 29.28" Hg
Pressure 991 hPa
Elevation 77
METAR BGTL 191656Z AUTO 10008KT 9999 CLR M32/M35 A2928 RMK AO2 SLP910 T13161347 TSNO CHINO RWY26 $
Observed Flight Rules
Jan-19 @ 16:56 UTC
(36 minutes ago)
VFR
Wind Visibility
100° at 8 knots 10,000+ meters
Clouds
  • Clear skies
Temperature Dewpoint
-32°C / -26°F -35°C / -31°F
Humidity Altimeter Pressure
75% 29.28" Hg 991 hPa